Time;durP1;ratioP1;P1;durP2;ratioP2;P2;SDS_P1;SDS_P2;PMS_P1;PMS_P2;Temp;Humidity;BMP_temperature;BMP_pressure;BME280_temperature;BME280_humidity;BME280_pressure;Samples;Min_cycle;Max_cycle;Signal;HPM_P1;HPM_P2
2022/11/24 00:01:15;;;;;;;2.57;2.37;;;21.30;64.30;;;;;;4997388;28;20460;-71
2022/11/24 00:03:44;;;;;;;2.40;1.83;;;21.20;64.50;;;;;;5000790;28;20482;-72
2022/11/24 00:06:14;;;;;;;3.07;2.27;;;21.20;64.40;;;;;;5001905;28;20472;-71
2022/11/24 00:08:46;;;;;;;3.03;1.87;;;21.20;64.40;;;;;;5000227;28;21053;-72
2022/11/24 00:11:16;;;;;;;2.70;2.27;;;21.20;64.40;;;;;;5003461;28;20476;-72
2022/11/24 00:13:45;;;;;;;2.20;1.83;;;21.10;64.40;;;;;;5003404;28;20513;-72
2022/11/24 00:16:15;;;;;;;3.27;2.10;;;21.10;64.50;;;;;;5006169;28;20460;-71
2022/11/24 00:18:45;;;;;;;2.20;1.50;;;21.10;64.40;;;;;;5003840;28;20472;-72
2022/11/24 00:21:14;;;;;;;2.03;1.90;;;21.10;64.40;;;;;;5000558;28;20584;-71
2022/11/24 00:23:44;;;;;;;2.37;2.10;;;21.00;64.30;;;;;;5006373;28;20489;-72
2022/11/24 00:26:13;;;;;;;2.03;1.73;;;21.00;64.50;;;;;;4998475;28;20459;-72
2022/11/24 00:28:43;;;;;;;1.80;1.70;;;21.00;64.30;;;;;;5006139;28;20456;-71
2022/11/24 00:31:16;;;;;;;5.37;1.90;;;21.00;64.40;;;;;;5012301;28;20486;-71
2022/11/24 00:33:46;;;;;;;3.20;1.90;;;21.00;64.50;;;;;;5007258;28;20510;-71
2022/11/24 00:36:15;;;;;;;2.53;1.80;;;21.00;64.60;;;;;;5012943;28;20943;-72
2022/11/24 00:38:45;;;;;;;2.03;1.60;;;20.90;64.70;;;;;;5010486;28;20886;-72
2022/11/24 00:41:13;;;;;;;3.53;2.00;;;20.90;64.40;;;;;;5010096;28;20439;-72
2022/11/24 00:43:42;;;;;;;2.03;1.83;;;20.90;64.90;;;;;;5012785;28;20522;-71
2022/11/24 00:46:10;;;;;;;2.73;1.80;;;20.90;64.80;;;;;;5009468;28;20467;-72
2022/11/24 00:48:38;;;;;;;2.10;1.90;;;20.90;64.90;;;;;;5011806;28;20518;-71
2022/11/24 00:51:09;;;;;;;2.43;1.90;;;20.90;64.50;;;;;;5013599;28;20575;-71
2022/11/24 00:53:37;;;;;;;1.87;1.77;;;20.90;64.50;;;;;;5012933;28;20463;-71
2022/11/24 00:56:08;;;;;;;1.90;1.50;;;20.90;64.90;;;;;;5008893;28;20459;-71
2022/11/24 00:58:36;;;;;;;2.97;1.97;;;20.90;65.00;;;;;;5011267;28;20463;-71
2022/11/24 01:01:06;;;;;;;2.10;1.93;;;20.90;64.90;;;;;;5009756;28;20462;-71
2022/11/24 01:03:35;;;;;;;3.90;2.17;;;20.90;65.10;;;;;;5012358;28;20501;-71
2022/11/24 01:06:04;;;;;;;2.00;1.80;;;20.90;64.60;;;;;;5005110;28;20521;-71
2022/11/24 01:08:33;;;;;;;2.67;1.83;;;20.90;64.70;;;;;;5012780;28;20468;-71
2022/11/24 01:11:13;;;;;;;3.20;2.10;;;20.80;64.40;;;;;;5012682;28;20486;-71
2022/11/24 01:13:43;;;;;;;2.33;2.13;;;20.80;64.30;;;;;;5013452;28;20449;-71
2022/11/24 01:16:16;;;;;;;2.10;1.80;;;20.80;64.20;;;;;;5012433;28;20446;-71
2022/11/24 01:18:44;;;;;;;2.60;1.50;;;20.80;64.30;;;;;;5010794;28;20466;-71
2022/11/24 01:21:13;;;;;;;3.10;2.33;;;20.80;65.10;;;;;;5007672;28;20458;-71
2022/11/24 01:23:41;;;;;;;1.43;1.33;;;20.80;65.00;;;;;;5013242;28;20493;-71
2022/11/24 01:26:13;;;;;;;2.23;1.67;;;20.80;65.00;;;;;;5008925;28;20482;-71
2022/11/24 01:28:42;;;;;;;1.37;1.27;;;20.80;65.10;;;;;;5011456;28;20988;-72
2022/11/24 01:31:15;;;;;;;1.27;1.17;;;20.80;65.10;;;;;;5010904;28;20560;-71
2022/11/24 01:33:43;;;;;;;1.87;1.67;;;20.80;65.20;;;;;;5010302;28;20981;-71
2022/11/24 01:36:12;;;;;;;2.13;1.93;;;20.80;65.20;;;;;;5002886;28;20465;-72
2022/11/24 01:38:40;;;;;;;2.03;1.57;;;20.80;65.10;;;;;;5010650;28;20473;-71
2022/11/24 01:41:11;;;;;;;1.70;1.43;;;20.80;65.20;;;;;;5009616;28;20547;-71
2022/11/24 01:43:41;;;;;;;1.47;1.37;;;20.80;65.10;;;;;;5008205;28;20473;-71
2022/11/24 01:46:18;;;;;;;1.43;1.23;;;20.80;65.20;;;;;;5008241;28;20461;-74
2022/11/24 01:48:51;;;;;;;1.40;1.20;;;20.80;65.10;;;;;;5010608;28;20495;-71
2022/11/24 01:51:23;;;;;;;1.50;1.33;;;20.80;65.20;;;;;;5011377;28;20465;-71
2022/11/24 01:53:56;;;;;;;1.67;1.57;;;20.80;65.10;;;;;;5010751;28;20447;-72
2022/11/24 01:56:24;;;;;;;1.80;1.70;;;20.80;65.20;;;;;;5011631;28;20446;-71
2022/11/24 01:58:58;;;;;;;1.20;1.20;;;20.80;65.10;;;;;;5005804;28;20543;-71
2022/11/24 02:01:28;;;;;;;1.93;1.47;;;20.70;65.20;;;;;;5010083;28;20460;-71
2022/11/24 02:03:57;;;;;;;2.20;1.57;;;20.70;65.20;;;;;;5010711;28;20942;-72
2022/11/24 02:06:27;;;;;;;1.23;1.20;;;20.70;65.20;;;;;;5006311;28;20455;-71
2022/11/24 02:09:00;;;;;;;1.37;1.00;;;20.70;65.20;;;;;;5008677;28;20458;-71
2022/11/24 02:11:33;;;;;;;1.27;1.20;;;20.70;65.30;;;;;;5011060;28;20486;-71
2022/11/24 02:14:05;;;;;;;1.50;1.40;;;20.70;65.20;;;;;;5011520;28;20458;-71
2022/11/24 02:16:35;;;;;;;1.77;1.67;;;20.70;65.20;;;;;;5012087;28;20451;-71
2022/11/24 02:19:07;;;;;;;1.60;1.50;;;20.70;65.20;;;;;;5012550;28;20440;-71
2022/11/24 02:21:36;;;;;;;2.80;1.80;;;20.70;65.20;;;;;;5011019;28;20923;-71
2022/11/24 02:24:12;;;;;;;1.40;1.23;;;20.70;65.20;;;;;;5010798;28;20492;-71
2022/11/24 02:26:43;;;;;;;1.70;1.60;;;20.70;65.20;;;;;;5011992;28;20484;-71
2022/11/24 02:29:12;;;;;;;2.30;1.37;;;20.70;64.60;;;;;;5011590;28;20456;-71
2022/11/24 02:31:45;;;;;;;1.70;1.60;;;20.70;64.70;;;;;;5010120;28;20479;-71
2022/11/24 02:34:13;;;;;;;1.53;1.43;;;20.70;64.30;;;;;;5011629;28;20573;-71
2022/11/24 02:36:41;;;;;;;4.10;1.90;;;20.70;64.30;;;;;;5008753;28;20470;-71
2022/11/24 02:39:12;;;;;;;1.50;1.40;;;20.70;64.60;;;;;;5011189;28;20442;-71
2022/11/24 02:41:43;;;;;;;1.50;1.40;;;20.70;64.30;;;;;;5010651;28;20494;-71
2022/11/24 02:44:15;;;;;;;2.10;1.90;;;20.60;64.30;;;;;;4993840;28;20466;-71
2022/11/24 02:46:43;;;;;;;1.50;1.40;;;20.60;64.80;;;;;;5007548;28;20446;-71
2022/11/24 02:49:11;;;;;;;1.57;1.47;;;20.60;65.10;;;;;;5011609;28;21037;-72
2022/11/24 02:51:39;;;;;;;1.50;1.40;;;20.60;64.70;;;;;;5009338;28;20490;-71
2022/11/24 02:54:08;;;;;;;2.03;1.13;;;20.60;65.10;;;;;;5007860;28;20929;-71
2022/11/24 02:56:36;;;;;;;2.00;1.47;;;20.60;65.20;;;;;;5005760;28;20838;-71
2022/11/24 02:59:05;;;;;;;1.63;1.27;;;20.60;65.10;;;;;;5010414;28;20463;-71
2022/11/24 03:01:33;;;;;;;1.80;1.23;;;20.60;65.20;;;;;;5010038;28;20464;-71
2022/11/24 03:04:01;;;;;;;1.13;1.13;;;20.60;65.20;;;;;;5005324;28;20524;-71
2022/11/24 03:06:29;;;;;;;1.53;1.40;;;20.60;65.20;;;;;;5010625;28;20448;-71
2022/11/24 03:08:58;;;;;;;1.30;1.20;;;20.60;65.10;;;;;;5011726;28;20458;-71
2022/11/24 03:11:26;;;;;;;1.67;1.30;;;20.60;65.10;;;;;;5008021;28;20471;-71
2022/11/24 03:13:54;;;;;;;1.50;1.40;;;20.60;65.10;;;;;;5006829;28;20443;-71
2022/11/24 03:16:23;;;;;;;2.13;1.70;;;20.60;65.10;;;;;;5011274;28;20455;-71
2022/11/24 03:18:52;;;;;;;1.33;1.23;;;20.60;65.10;;;;;;5010994;28;20456;-71
2022/11/24 03:21:20;;;;;;;1.20;1.10;;;20.60;65.00;;;;;;5008988;28;20494;-71
2022/11/24 03:23:48;;;;;;;2.00;1.10;;;20.60;65.10;;;;;;5011851;28;20494;-71
2022/11/24 03:26:18;;;;;;;1.70;1.47;;;20.60;65.00;;;;;;5014666;28;21085;-71
2022/11/24 03:28:46;;;;;;;1.30;1.20;;;20.60;65.00;;;;;;5009558;28;20446;-71
2022/11/24 03:31:15;;;;;;;1.23;1.13;;;20.60;65.00;;;;;;5011569;28;20459;-71
2022/11/24 03:33:44;;;;;;;1.50;1.40;;;20.60;65.00;;;;;;5012846;28;21152;-71
2022/11/24 03:36:12;;;;;;;1.70;1.33;;;20.60;64.80;;;;;;5013748;28;20458;-72
2022/11/24 03:38:40;;;;;;;1.53;1.43;;;20.60;64.80;;;;;;5015267;28;20461;-71
2022/11/24 03:41:09;;;;;;;1.20;1.10;;;20.60;64.70;;;;;;5013945;28;20458;-72
2022/11/24 03:43:37;;;;;;;1.27;1.03;;;20.60;64.90;;;;;;5004300;28;20467;-71
2022/11/24 03:46:11;;;;;;;1.23;1.13;;;20.60;64.50;;;;;;5012201;28;20557;-71
2022/11/24 03:48:40;;;;;;;1.23;1.10;;;20.60;64.50;;;;;;5005587;28;20470;-71
2022/11/24 03:51:10;;;;;;;1.20;1.10;;;20.60;64.60;;;;;;5005649;28;20463;-71
2022/11/24 03:53:39;;;;;;;1.20;1.13;;;20.60;64.50;;;;;;5002437;28;20543;-71
2022/11/24 03:56:08;;;;;;;1.67;1.47;;;20.60;64.50;;;;;;5014098;28;21383;-71
2022/11/24 03:58:36;;;;;;;0.80;0.80;;;20.60;64.30;;;;;;5015091;28;20455;-71
2022/11/24 04:01:04;;;;;;;1.10;1.00;;;20.60;64.60;;;;;;5012581;28;20546;-71
2022/11/24 04:03:32;;;;;;;1.53;1.37;;;20.60;64.80;;;;;;5011102;28;20450;-71
2022/11/24 04:06:00;;;;;;;1.27;1.17;;;20.60;64.50;;;;;;5012613;28;20463;-71
2022/11/24 04:08:30;;;;;;;1.00;1.00;;;20.60;64.80;;;;;;5012086;28;20477;-72
2022/11/24 04:10:58;;;;;;;1.07;0.97;;;20.60;64.80;;;;;;5013348;28;20472;-71
2022/11/24 04:13:26;;;;;;;1.37;0.83;;;20.60;64.80;;;;;;5013758;28;20478;-71
2022/11/24 04:15:54;;;;;;;1.00;1.00;;;20.60;64.80;;;;;;5013251;28;20458;-71
2022/11/24 04:18:22;;;;;;;1.47;1.37;;;20.60;64.80;;;;;;5010322;28;20455;-71
2022/11/24 04:20:51;;;;;;;2.00;1.17;;;20.60;64.80;;;;;;5009910;28;20473;-71
2022/11/24 04:23:20;;;;;;;1.00;0.90;;;20.60;64.80;;;;;;5004368;28;20502;-71
2022/11/24 04:25:49;;;;;;;1.00;0.90;;;20.60;64.80;;;;;;5013736;28;20463;-71
2022/11/24 04:28:17;;;;;;;1.17;1.07;;;20.60;64.70;;;;;;5013206;28;20447;-71
2022/11/24 04:30:45;;;;;;;1.03;0.93;;;20.60;64.70;;;;;;5012238;28;20814;-71
2022/11/24 04:33:14;;;;;;;1.13;1.03;;;20.60;64.70;;;;;;5005403;28;20478;-71
2022/11/24 04:35:42;;;;;;;1.10;1.10;;;20.60;64.60;;;;;;5011915;28;20460;-71
2022/11/24 04:38:10;;;;;;;1.20;1.10;;;20.60;64.70;;;;;;5013539;28;20459;-71
2022/11/24 04:40:38;;;;;;;2.20;1.40;;;20.60;64.70;;;;;;5012801;28;20807;-72
2022/11/24 04:43:09;;;;;;;1.10;1.10;;;20.60;64.60;;;;;;5013763;28;20460;-71
2022/11/24 04:45:37;;;;;;;1.10;0.93;;;20.60;64.60;;;;;;5010840;28;20521;-71
2022/11/24 04:48:06;;;;;;;0.57;0.57;;;20.60;64.60;;;;;;5013578;28;20490;-71
2022/11/24 04:50:34;;;;;;;1.10;1.00;;;20.60;64.60;;;;;;5011843;28;20470;-71
2022/11/24 04:53:02;;;;;;;1.90;1.30;;;20.60;64.50;;;;;;5010317;28;20492;-71
2022/11/24 04:55:30;;;;;;;0.97;0.87;;;20.60;64.50;;;;;;5011468;28;20462;-71
2022/11/24 04:57:58;;;;;;;0.97;0.97;;;20.50;64.70;;;;;;5013259;28;20447;-71
2022/11/24 05:00:27;;;;;;;1.43;1.20;;;20.50;64.70;;;;;;5009769;28;20455;-71
2022/11/24 05:02:56;;;;;;;0.90;0.90;;;20.50;64.70;;;;;;5011590;28;20832;-71
2022/11/24 05:05:26;;;;;;;0.83;0.83;;;20.50;64.70;;;;;;5010419;28;20461;-71
2022/11/24 05:07:54;;;;;;;1.03;0.80;;;20.50;64.80;;;;;;5011560;28;20530;-71
2022/11/24 05:10:35;;;;;;;1.10;0.93;;;20.50;64.70;;;;;;5009354;28;20466;-72
2022/11/24 05:13:05;;;;;;;0.80;0.80;;;20.50;64.70;;;;;;5012270;28;20481;-71
2022/11/24 05:15:34;;;;;;;1.00;0.80;;;20.50;64.70;;;;;;5011017;28;20463;-71
2022/11/24 05:18:05;;;;;;;0.90;0.90;;;20.50;64.60;;;;;;5003059;28;20994;-71
2022/11/24 05:20:33;;;;;;;1.00;1.00;;;20.50;64.50;;;;;;5003993;28;20468;-71
2022/11/24 05:23:03;;;;;;;1.50;0.90;;;20.50;64.40;;;;;;5007243;28;20492;-71
2022/11/24 05:25:31;;;;;;;0.93;0.90;;;20.50;64.10;;;;;;5007122;28;20545;-75
2022/11/24 05:28:01;;;;;;;1.67;0.80;;;20.50;64.10;;;;;;5006711;28;20454;-72
2022/11/24 05:30:30;;;;;;;1.10;1.00;;;20.50;64.00;;;;;;5007840;28;20455;-71
2022/11/24 05:33:04;;;;;;;0.60;0.60;;;20.50;64.20;;;;;;5008302;28;20470;-71
2022/11/24 05:35:32;;;;;;;0.70;0.70;;;20.40;64.10;;;;;;5011116;28;20447;-71
2022/11/24 05:38:01;;;;;;;1.37;0.90;;;20.40;64.40;;;;;;5012049;28;20448;-71
2022/11/24 05:40:29;;;;;;;1.90;1.13;;;20.40;64.70;;;;;;5003765;28;20461;-71
2022/11/24 05:42:57;;;;;;;1.00;1.00;;;20.40;64.70;;;;;;5006956;28;20503;-71
2022/11/24 05:45:25;;;;;;;0.83;0.67;;;20.40;64.70;;;;;;5009943;28;20455;-71
2022/11/24 05:47:54;;;;;;;3.37;1.00;;;20.40;64.70;;;;;;5009290;28;20502;-68
2022/11/24 05:50:23;;;;;;;2.00;0.90;;;20.40;64.80;;;;;;5003491;28;20951;-68
2022/11/24 05:52:51;;;;;;;1.23;1.13;;;20.50;64.80;;;;;;5000105;28;20484;-69
2022/11/24 05:55:20;;;;;;;1.50;0.90;;;20.50;64.80;;;;;;4999389;28;20466;-68
2022/11/24 05:57:48;;;;;;;1.87;1.73;;;20.40;64.80;;;;;;5002070;28;20805;-69
2022/11/24 06:00:18;;;;;;;3.17;1.40;;;20.50;65.00;;;;;;5000733;28;20476;-69
2022/11/24 06:02:47;;;;;;;3.80;1.30;;;20.40;65.00;;;;;;4995018;28;20463;-69
2022/11/24 06:05:16;;;;;;;1.40;1.10;;;20.40;65.10;;;;;;5001662;28;20471;-68
2022/11/24 06:07:46;;;;;;;1.80;1.20;;;20.40;65.20;;;;;;5002043;28;20832;-68
2022/11/24 06:10:15;;;;;;;1.70;1.10;;;20.40;64.80;;;;;;4999475;28;20459;-68
2022/11/24 06:12:43;;;;;;;2.77;1.50;;;20.40;64.90;;;;;;5005439;28;20932;-69
2022/11/24 06:15:12;;;;;;;1.83;0.90;;;20.40;64.80;;;;;;5010424;28;20456;-68
2022/11/24 06:17:40;;;;;;;4.40;1.23;;;20.40;65.00;;;;;;5009468;28;20549;-72
2022/11/24 06:20:10;;;;;;;3.60;1.40;;;20.40;64.90;;;;;;5003486;28;20464;-69
2022/11/24 06:22:38;;;;;;;5.57;1.47;;;20.40;64.90;;;;;;5004302;28;20454;-69
2022/11/24 06:25:09;;;;;;;2.67;1.00;;;20.40;64.80;;;;;;5007462;28;20531;-69
2022/11/24 06:27:37;;;;;;;1.43;1.00;;;20.40;64.90;;;;;;5010702;28;20454;-69
2022/11/24 06:30:06;;;;;;;2.60;1.13;;;20.30;65.50;;;;;;5006387;28;20506;-69
2022/11/24 06:32:34;;;;;;;2.33;1.20;;;20.30;65.40;;;;;;4997316;28;20443;-69
2022/11/24 06:35:02;;;;;;;1.07;1.07;;;20.30;65.80;;;;;;5001829;28;20503;-69
2022/11/24 06:37:30;;;;;;;3.83;0.97;;;20.30;65.70;;;;;;5004766;28;20868;-69
2022/11/24 06:39:59;;;;;;;2.50;1.40;;;20.40;65.50;;;;;;4998634;28;20442;-68
2022/11/24 06:42:28;;;;;;;4.10;1.47;;;20.40;65.50;;;;;;4997385;28;20470;-69
2022/11/24 06:44:56;;;;;;;2.27;1.37;;;20.40;65.40;;;;;;4996360;28;20531;-69
2022/11/24 06:47:24;;;;;;;3.83;1.40;;;20.40;65.40;;;;;;4999632;28;20479;-69
2022/11/24 06:49:52;;;;;;;2.80;1.40;;;20.40;65.50;;;;;;4994805;28;20541;-70
2022/11/24 06:52:20;;;;;;;2.70;1.10;;;20.40;65.60;;;;;;4997870;28;20484;-69
2022/11/24 06:54:49;;;;;;;3.10;1.20;;;20.40;65.60;;;;;;4998774;28;20485;-69
2022/11/24 06:57:17;;;;;;;3.30;1.50;;;20.40;65.50;;;;;;4996294;28;20443;-69
2022/11/24 06:59:46;;;;;;;1.73;1.20;;;20.40;65.50;;;;;;5002606;28;20458;-70
2022/11/24 07:02:14;;;;;;;1.00;0.90;;;20.40;65.20;;;;;;4987265;28;20473;-70
2022/11/24 07:04:42;;;;;;;3.17;1.13;;;20.40;65.40;;;;;;5015200;28;20562;-69
2022/11/24 07:07:11;;;;;;;2.00;1.27;;;20.40;65.50;;;;;;5014642;28;20870;-69
2022/11/24 07:09:39;;;;;;;2.43;1.13;;;20.40;65.40;;;;;;5015979;28;20450;-69
2022/11/24 07:12:08;;;;;;;2.50;1.10;;;20.40;65.50;;;;;;5015245;28;20474;-69
2022/11/24 07:14:36;;;;;;;2.10;1.40;;;20.40;65.20;;;;;;5015865;28;20483;-69
2022/11/24 07:17:06;;;;;;;1.97;1.07;;;20.40;65.10;;;;;;5017431;28;20467;-69
2022/11/24 07:19:34;;;;;;;2.90;1.37;;;20.40;65.30;;;;;;5008534;28;21006;-70
2022/11/24 07:22:02;;;;;;;1.40;1.10;;;20.40;65.00;;;;;;5006898;28;20500;-69
2022/11/24 07:24:30;;;;;;;5.03;1.80;;;20.40;64.90;;;;;;5013940;28;20493;-68
2022/11/24 07:26:59;;;;;;;2.13;1.30;;;20.40;65.20;;;;;;5014969;28;20500;-69
2022/11/24 07:29:27;;;;;;;1.90;1.10;;;20.40;64.70;;;;;;5004149;28;21014;-68
2022/11/24 07:31:55;;;;;;;1.10;1.00;;;20.40;64.70;;;;;;5010673;28;20534;-68
2022/11/24 07:34:32;;;;;;;1.33;1.03;;;20.40;64.70;;;;;;5001155;28;20811;-68
2022/11/24 07:37:00;;;;;;;1.10;0.80;;;20.40;64.60;;;;;;5004035;28;20498;-68
2022/11/24 07:39:28;;;;;;;5.20;1.40;;;20.30;64.80;;;;;;5005186;28;20470;-68
2022/11/24 07:41:58;;;;;;;1.00;1.00;;;20.30;64.60;;;;;;5004876;28;20950;-68
2022/11/24 07:44:26;;;;;;;2.10;1.33;;;20.30;64.90;;;;;;5001057;28;20463;-68
2022/11/24 07:46:54;;;;;;;0.83;0.70;;;20.30;64.50;;;;;;5003542;28;20458;-68
2022/11/24 07:49:23;;;;;;;2.10;1.37;;;20.30;64.80;;;;;;5006498;28;20495;-68
2022/11/24 07:51:52;;;;;;;1.13;0.90;;;20.30;65.00;;;;;;5002758;28;20864;-68
2022/11/24 07:54:20;;;;;;;1.67;1.30;;;20.30;64.80;;;;;;5003919;28;20489;-68
2022/11/24 07:56:49;;;;;;;2.20;1.60;;;20.30;64.50;;;;;;5000859;28;20472;-69
2022/11/24 07:59:17;;;;;;;2.00;1.40;;;20.30;64.40;;;;;;5010721;28;20462;-68
2022/11/24 08:01:45;;;;;;;2.40;1.23;;;20.30;64.50;;;;;;5006434;28;20478;-68
2022/11/24 08:04:13;;;;;;;2.10;1.10;;;20.30;64.50;;;;;;5006079;28;20575;-75
2022/11/24 08:06:44;;;;;;;15.07;3.77;;;20.30;64.50;;;;;;5006497;28;20450;-77
2022/11/24 08:09:16;;;;;;;6.23;2.10;;;20.30;69.70;;;;;;5006158;28;20447;-77
2022/11/24 08:11:44;;;;;;;5.57;2.13;;;20.30;70.20;;;;;;5005193;28;20464;-75
2022/11/24 08:14:12;;;;;;;5.83;2.60;;;20.40;70.60;;;;;;5002413;28;21140;-76
2022/11/24 08:16:40;;;;;;;5.73;1.60;;;20.40;70.20;;;;;;4999817;28;20461;-77
2022/11/24 08:19:10;;;;;;;6.90;2.23;;;20.40;70.10;;;;;;4996929;28;20443;-78
2022/11/24 08:21:38;;;;;;;4.40;1.77;;;20.40;70.60;;;;;;5001243;28;20839;-79
2022/11/24 08:24:08;;;;;;;5.80;2.10;;;20.50;70.90;;;;;;5007740;28;20492;-77
2022/11/24 08:26:37;;;;;;;7.97;1.93;;;20.50;70.80;;;;;;4997253;28;20955;-78
2022/11/24 08:29:05;;;;;;;3.53;2.00;;;20.60;70.90;;;;;;5004555;28;21039;-76
2022/11/24 08:31:34;;;;;;;6.60;2.00;;;20.60;71.00;;;;;;4999850;28;21192;-75
2022/11/24 08:34:04;;;;;;;2.87;1.70;;;20.60;70.80;;;;;;5004610;28;20460;-79
2022/11/24 08:36:33;;;;;;;5.47;1.87;;;20.70;70.80;;;;;;4999911;28;20463;-79
2022/11/24 08:39:02;;;;;;;5.43;2.07;;;20.70;70.50;;;;;;5002260;28;20446;-79
2022/11/24 08:41:32;;;;;;;1.43;1.33;;;20.70;70.30;;;;;;4996558;28;20511;-78
2022/11/24 08:44:01;;;;;;;3.80;1.47;;;20.70;70.00;;;;;;5002696;28;20454;-78
2022/11/24 08:46:29;;;;;;;5.57;2.13;;;20.70;70.00;;;;;;4987165;28;20471;-74
2022/11/24 08:48:58;;;;;;;2.97;1.50;;;20.70;69.80;;;;;;4998463;28;20811;-79
2022/11/24 08:51:27;;;;;;;2.80;1.50;;;20.70;69.80;;;;;;4998108;28;20461;-75
2022/11/24 08:53:57;;;;;;;1.83;1.73;;;20.70;69.60;;;;;;5002888;28;20482;-79
2022/11/24 08:56:26;;;;;;;2.47;1.30;;;20.70;69.90;;;;;;5012267;28;20820;-78
2022/11/24 08:58:55;;;;;;;3.00;1.20;;;20.70;69.80;;;;;;5002775;28;20479;-77
2022/11/24 09:01:25;;;;;;;5.27;1.80;;;20.80;69.30;;;;;;5006166;28;20459;-79
2022/11/24 09:03:53;;;;;;;3.97;2.00;;;20.80;69.40;;;;;;5010634;28;20490;-71
2022/11/24 09:06:25;;;;;;;3.80;1.80;;;20.80;69.10;;;;;;5008633;28;21504;-80
2022/11/24 09:08:54;;;;;;;1.27;1.17;;;20.80;68.80;;;;;;5011992;28;20514;-80
2022/11/24 09:11:24;;;;;;;2.37;1.67;;;20.80;68.70;;;;;;5010439;28;20523;-80
2022/11/24 09:13:52;;;;;;;1.90;1.07;;;20.80;68.40;;;;;;5012164;28;20455;-75
2022/11/24 09:16:24;;;;;;;3.40;1.30;;;20.80;68.30;;;;;;5006220;28;20472;-79
2022/11/24 09:19:00;;;;;;;2.23;1.20;;;20.80;68.20;;;;;;5014352;28;20799;-79
2022/11/24 09:21:29;;;;;;;2.80;1.03;;;20.80;68.10;;;;;;5006838;28;20466;-79
2022/11/24 09:23:58;;;;;;;6.23;1.80;;;20.80;67.80;;;;;;5010989;28;20497;-79
2022/11/24 09:26:28;;;;;;;2.50;1.30;;;20.80;67.80;;;;;;5010637;28;20487;-80
2022/11/24 09:28:58;;;;;;;4.60;1.40;;;20.80;67.80;;;;;;5010923;28;20484;-76
2022/11/24 09:31:28;;;;;;;3.00;1.10;;;20.80;67.40;;;;;;5010439;28;20456;-77
2022/11/24 09:33:58;;;;;;;2.00;1.80;;;20.80;67.50;;;;;;5011970;28;20480;-76
2022/11/24 09:36:27;;;;;;;3.20;1.57;;;20.80;67.50;;;;;;5011834;28;20474;-79
2022/11/24 09:38:55;;;;;;;2.00;1.10;;;20.80;67.40;;;;;;5006785;28;20821;-79
2022/11/24 09:41:41;;;;;;;1.63;1.53;;;20.80;67.40;;;;;;5007242;28;20455;-76
2022/11/24 09:44:29;;;;;;;2.60;1.40;;;20.80;67.50;;;;;;5007059;28;21332;-76
2022/11/24 09:47:09;;;;;;;1.83;1.00;;;20.80;67.80;;;;;;4992661;28;20897;-79
2022/11/24 09:49:46;;;;;;;3.70;1.53;;;20.90;67.80;;;;;;5008109;28;20579;-81
2022/11/24 09:52:24;;;;;;;1.30;1.20;;;20.90;67.90;;;;;;5011503;28;20453;-74
2022/11/24 09:54:58;;;;;;;4.80;1.63;;;20.90;67.80;;;;;;5004406;28;21010;-81
2022/11/24 09:57:29;;;;;;;1.47;1.00;;;20.90;67.70;;;;;;5011640;28;20827;-80
2022/11/24 10:00:12;;;;;;;2.93;1.53;;;20.90;67.70;;;;;;5011362;28;20502;-76
2022/11/24 10:02:40;;;;;;;1.93;1.23;;;20.90;67.70;;;;;;5011257;28;20889;-77
2022/11/24 10:05:13;;;;;;;1.47;1.37;;;21.00;67.60;;;;;;5010085;28;20486;-80
2022/11/24 10:07:47;;;;;;;2.03;1.27;;;21.00;67.40;;;;;;5012126;28;20460;-80
2022/11/24 10:10:20;;;;;;;2.13;1.20;;;21.00;67.50;;;;;;5015774;28;20472;-77
2022/11/24 10:13:04;;;;;;;1.70;1.13;;;21.00;67.40;;;;;;5009568;28;20855;-80
2022/11/24 10:15:44;;;;;;;1.90;1.00;;;21.10;67.30;;;;;;5002736;28;20486;-69
2022/11/24 10:18:29;;;;;;;3.63;1.20;;;21.10;67.00;;;;;;5008329;28;20460;-70
2022/11/24 10:21:13;;;;;;;2.30;1.30;;;21.20;67.20;;;;;;5005610;28;20466;-70
2022/11/24 10:23:57;;;;;;;2.07;1.20;;;21.20;67.10;;;;;;5009098;28;20572;-70
2022/11/24 10:26:34;;;;;;;1.13;0.80;;;21.30;67.00;;;;;;5011631;28;20447;-70
2022/11/24 10:29:15;;;;;;;1.70;1.20;;;21.40;66.80;;;;;;5011523;28;20469;-70
2022/11/24 10:31:45;;;;;;;4.63;1.17;;;21.40;66.80;;;;;;5007939;28;20444;-70
2022/11/24 10:34:17;;;;;;;2.00;1.30;;;21.40;66.80;;;;;;5009914;28;20568;-70
2022/11/24 10:36:51;;;;;;;1.40;0.97;;;21.40;66.80;;;;;;5003881;28;20483;-70
2022/11/24 10:39:28;;;;;;;1.00;0.80;;;21.50;66.80;;;;;;4994416;28;20948;-70
2022/11/24 10:42:02;;;;;;;3.47;1.60;;;21.50;66.70;;;;;;4999379;28;20527;-70
2022/11/24 10:44:31;;;;;;;6.00;1.30;;;21.60;66.40;;;;;;4999474;28;21196;-70
2022/11/24 10:46:59;;;;;;;1.50;1.40;;;21.60;66.40;;;;;;4998446;28;20489;-70
2022/11/24 10:49:32;;;;;;;1.60;1.10;;;21.50;66.50;;;;;;5010595;28;20459;-70
2022/11/24 10:52:10;;;;;;;0.97;0.97;;;21.50;66.70;;;;;;5008663;28;20453;-69
2022/11/24 10:54:54;;;;;;;1.63;1.00;;;21.50;66.70;;;;;;5009690;28;20467;-70
2022/11/24 10:57:31;;;;;;;2.13;1.10;;;21.50;66.70;;;;;;5004434;28;20581;-70
2022/11/24 11:00:00;;;;;;;0.70;0.70;;;21.50;66.70;;;;;;5011008;28;20456;-70
2022/11/24 11:02:33;;;;;;;4.37;1.10;;;21.50;66.70;;;;;;5009084;28;20499;-70
2022/11/24 11:05:40;;;;;;;1.33;1.10;;;21.40;66.80;;;;;;5003066;28;20451;-70
2022/11/24 11:08:22;;;;;;;1.73;0.83;;;21.40;66.80;;;;;;5008950;28;20466;-70
2022/11/24 11:11:07;;;;;;;2.00;1.10;;;21.40;66.80;;;;;;5009763;28;20462;-70
2022/11/24 11:13:35;;;;;;;3.33;1.43;;;21.40;66.60;;;;;;5010115;28;20448;-70
2022/11/24 11:16:22;;;;;;;1.23;0.90;;;21.40;66.60;;;;;;5009969;28;20476;-70
2022/11/24 11:18:51;;;;;;;1.30;1.20;;;21.40;66.50;;;;;;5014623;28;20447;-70
2022/11/24 11:21:28;;;;;;;1.80;1.20;;;21.40;66.70;;;;;;5004607;28;20459;-71
2022/11/24 11:23:59;;;;;;;1.40;0.90;;;21.40;66.70;;;;;;5006317;28;20491;-70
2022/11/24 11:26:36;;;;;;;2.33;1.43;;;21.40;66.70;;;;;;5008431;28;20458;-70
2022/11/24 11:29:15;;;;;;;1.53;1.07;;;21.40;66.70;;;;;;5010754;28;20455;-70
2022/11/24 11:32:16;;;;;;;1.23;1.10;;;21.40;66.60;;;;;;5010350;28;20469;-70
2022/11/24 11:35:04;;;;;;;1.47;0.63;;;21.50;66.40;;;;;;5010450;28;20499;-72
2022/11/24 11:37:33;;;;;;;4.30;0.97;;;21.40;66.60;;;;;;5008872;28;20480;-69
2022/11/24 11:40:03;;;;;;;2.10;1.23;;;21.40;66.20;;;;;;5008097;28;20821;-68
2022/11/24 11:42:42;;;;;;;1.67;0.90;;;21.40;66.40;;;;;;5010290;28;20568;-68
2022/11/24 11:45:35;;;;;;;1.60;1.37;;;21.40;66.10;;;;;;5010109;28;20464;-68
2022/11/24 11:48:22;;;;;;;1.93;1.20;;;21.40;66.00;;;;;;5013258;28;20495;-68
2022/11/24 11:50:54;;;;;;;1.20;0.90;;;21.40;65.90;;;;;;5012307;28;20463;-68
2022/11/24 11:53:50;;;;;;;1.83;1.27;;;21.40;65.90;;;;;;5007453;28;20839;-68
2022/11/24 11:56:26;;;;;;;1.30;1.20;;;21.40;65.80;;;;;;4996574;28;20478;-69
2022/11/24 11:59:10;;;;;;;2.43;0.97;;;21.50;65.80;;;;;;5008273;28;20474;-68
2022/11/24 12:01:55;;;;;;;0.93;0.93;;;21.60;65.80;;;;;;5011369;28;20470;-68
2022/11/24 12:04:33;;;;;;;2.50;0.90;;;21.70;66.00;;;;;;5008402;28;20478;-68
2022/11/24 12:07:28;;;;;;;0.83;0.83;;;21.80;65.60;;;;;;5009022;28;20866;-68
2022/11/24 12:10:04;;;;;;;0.87;0.60;;;21.90;65.00;;;;;;5006312;28;20483;-68
2022/11/24 12:12:58;;;;;;;1.07;0.97;;;22.00;64.80;;;;;;5008633;28;21006;-68
2022/11/24 12:15:33;;;;;;;0.97;0.63;;;22.00;64.30;;;;;;5005780;28;20508;-68
2022/11/24 12:18:11;;;;;;;1.93;1.80;;;21.90;64.30;;;;;;5011327;28;20571;-68
2022/11/24 12:21:10;;;;;;;4.67;1.37;;;21.90;64.40;;;;;;5006693;28;20702;-68
2022/11/24 12:23:52;;;;;;;2.13;0.83;;;21.80;64.50;;;;;;5012006;28;20511;-68
2022/11/24 12:26:28;;;;;;;1.37;1.20;;;21.70;64.60;;;;;;5010090;28;21036;-68
2022/11/24 12:29:18;;;;;;;2.03;1.93;;;21.70;64.70;;;;;;5013142;28;21042;-68
2022/11/24 12:31:54;;;;;;;1.90;1.30;;;21.60;64.90;;;;;;5011799;28;20452;-68
2022/11/24 12:34:36;;;;;;;1.93;1.37;;;21.50;65.00;;;;;;5010399;28;20539;-68
2022/11/24 12:37:20;;;;;;;2.20;1.23;;;21.50;65.00;;;;;;5011258;28;20522;-68
2022/11/24 12:39:56;;;;;;;1.13;1.00;;;21.40;65.10;;;;;;5009014;28;20465;-68
2022/11/24 12:42:34;;;;;;;1.80;1.03;;;21.40;65.10;;;;;;5005341;28;20529;-68
2022/11/24 12:45:16;;;;;;;1.47;1.10;;;21.30;65.20;;;;;;5008681;28;20542;-68
2022/11/24 12:48:02;;;;;;;2.33;1.40;;;21.30;65.10;;;;;;5003315;28;20484;-68
2022/11/24 12:50:36;;;;;;;1.50;1.20;;;21.30;65.20;;;;;;4992515;28;21014;-68
2022/11/24 12:53:12;;;;;;;1.07;1.07;;;21.30;65.10;;;;;;4998767;28;20480;-68
2022/11/24 12:55:41;;;;;;;1.93;1.83;;;21.30;65.10;;;;;;5007243;28;20463;-69
2022/11/24 12:58:16;;;;;;;2.83;1.30;;;21.30;65.00;;;;;;4997541;28;20482;-68
2022/11/24 13:01:01;;;;;;;1.33;1.23;;;21.30;65.00;;;;;;4998597;28;20482;-69
2022/11/24 13:03:39;;;;;;;1.70;1.40;;;21.30;65.00;;;;;;5000186;28;21002;-68
2022/11/24 13:06:13;;;;;;;2.83;1.57;;;21.20;65.10;;;;;;5002497;28;20473;-72
2022/11/24 13:08:41;;;;;;;2.80;1.80;;;21.20;65.10;;;;;;5003258;28;20459;-81
2022/11/24 13:11:25;;;;;;;5.13;2.07;;;21.20;65.20;;;;;;5001983;28;20556;-81